Aérodrome :







RETROUVEZ-NOUS SUR...

 
LOGIN :

S'inscrire | Disclaimer

   EN    FR    IT 

 









Légende :    VFR   VFR Marginal   IFR   IFR Intensif   IFR Très Intensif
Visi : 
Plafond : 
>= 8 km
>= 3000ft
5 à 8 km
1000 à 3000 ft
1500m à 5 km
500 à 1000 ft
800 à 1500m
200 à 500 ft
< 800m
< 200 ft
Symboles :   Orages  Brouillard  Fortes neiges  Fortes précipitations  Vent > 20 kt






- Altitude de l'aérodrome : 240 ft
- Code IATA : LRM


MDLR - Casa de Campo Int.

DERNIER METAR :
  • 251600Z 05010KT 9999 SCT020 BKN080 27/21 Q1014 NOSIG

METARs EXPIRÉS :
  • 251500Z 09004KT 9999 FEW019 BKN080 26/21 Q1015 NOSIG
  • 251400Z 08005KT 9999 FEW018 BKN070 25/21 Q1014

TAF TAF MDLR
Valide du 25 à 12h jusqu'au 26 à 12h UTC


251600Z 2512/2612 05006KT 9999 SCT020
PROB30 2518/2600 8000 -SH BKN016
BECMG 2519/ 2520 16006KT TAF MDCY 251600Z 2512/2612 05010KT 9999 SCT018
PROB30 2522/2603 7000 -RA SCT016 SCT070
BECMG 2518/2520 25010KT



MET'MAP, la Météo Aéronautique d'un coup d'oeil ! - Copyright ORBIFLY Décembre 2007 - Disclaimer

ORBIFLY MET'MAP TEAM :

Programmation & Développement : Alexandra Zaïnal
Sur une idée originale de : Baudouin d'Aumeries
Assistance à la programmation : Marc-Olivier Méhu
Soutien technique & logistique : Manuel Goepfert

Contact : metmap@orbifly.com




SOURCES & CREDITS :

   NOAA